sensor_id;sensor_type;location;lat;lon;timestamp;temperature;humidity
48019;DHT22;33786;48.690;9.562;2023-06-10T00:01:15;14.10;99.90
48019;DHT22;33786;48.690;9.562;2023-06-10T00:03:42;14.10;99.90
48019;DHT22;33786;48.690;9.562;2023-06-10T00:06:11;14.00;99.90
48019;DHT22;33786;48.690;9.562;2023-06-10T00:08:37;14.10;99.90
48019;DHT22;33786;48.690;9.562;2023-06-10T00:11:06;14.00;99.90
48019;DHT22;33786;48.690;9.562;2023-06-10T00:13:33;14.10;99.90
48019;DHT22;33786;48.690;9.562;2023-06-10T00:16:00;14.10;99.90
48019;DHT22;33786;48.690;9.562;2023-06-10T00:18:27;14.20;99.90
48019;DHT22;33786;48.690;9.562;2023-06-10T00:20:54;14.20;99.90
48019;DHT22;33786;48.690;9.562;2023-06-10T00:23:21;14.20;99.90
48019;DHT22;33786;48.690;9.562;2023-06-10T00:25:49;14.30;99.90
48019;DHT22;33786;48.690;9.562;2023-06-10T00:28:15;14.40;99.90
48019;DHT22;33786;48.690;9.562;2023-06-10T00:30:42;14.40;99.90
48019;DHT22;33786;48.690;9.562;2023-06-10T00:33:09;14.40;99.90
48019;DHT22;33786;48.690;9.562;2023-06-10T00:35:37;14.40;99.90
48019;DHT22;33786;48.690;9.562;2023-06-10T00:38:03;14.40;99.90
48019;DHT22;33786;48.690;9.562;2023-06-10T00:40:30;14.40;99.90
48019;DHT22;33786;48.690;9.562;2023-06-10T00:42:57;14.40;99.90
48019;DHT22;33786;48.690;9.562;2023-06-10T00:45:24;14.40;99.90
48019;DHT22;33786;48.690;9.562;2023-06-10T00:47:51;14.30;99.90
48019;DHT22;33786;48.690;9.562;2023-06-10T00:50:18;14.30;99.90
48019;DHT22;33786;48.690;9.562;2023-06-10T00:52:44;14.30;99.90
48019;DHT22;33786;48.690;9.562;2023-06-10T00:55:13;14.30;99.90
48019;DHT22;33786;48.690;9.562;2023-06-10T00:57:40;14.20;99.90
48019;DHT22;33786;48.690;9.562;2023-06-10T01:00:07;14.20;99.90
48019;DHT22;33786;48.690;9.562;2023-06-10T01:02:35;14.20;99.90
48019;DHT22;33786;48.690;9.562;2023-06-10T01:05:02;14.20;99.90
48019;DHT22;33786;48.690;9.562;2023-06-10T01:10:27;14.20;99.90
48019;DHT22;33786;48.690;9.562;2023-06-10T01:12:56;14.10;99.90
48019;DHT22;33786;48.690;9.562;2023-06-10T01:15:26;14.10;99.90
48019;DHT22;33786;48.690;9.562;2023-06-10T01:17:56;14.10;99.90
48019;DHT22;33786;48.690;9.562;2023-06-10T01:20:25;14.10;99.90
48019;DHT22;33786;48.690;9.562;2023-06-10T01:22:53;14.10;99.90
48019;DHT22;33786;48.690;9.562;2023-06-10T01:25:21;14.10;99.90
48019;DHT22;33786;48.690;9.562;2023-06-10T01:30:43;14.00;99.90
48019;DHT22;33786;48.690;9.562;2023-06-10T01:33:12;14.00;99.90
48019;DHT22;33786;48.690;9.562;2023-06-10T01:35:40;14.00;99.90
48019;DHT22;33786;48.690;9.562;2023-06-10T01:38:07;14.00;99.90
48019;DHT22;33786;48.690;9.562;2023-06-10T01:40:33;14.00;99.90
48019;DHT22;33786;48.690;9.562;2023-06-10T01:43:01;14.00;99.90
48019;DHT22;33786;48.690;9.562;2023-06-10T01:45:28;13.90;99.90
48019;DHT22;33786;48.690;9.562;2023-06-10T01:47:54;13.90;99.90
48019;DHT22;33786;48.690;9.562;2023-06-10T01:50:21;13.90;99.90
48019;DHT22;33786;48.690;9.562;2023-06-10T01:52:48;13.90;99.90
48019;DHT22;33786;48.690;9.562;2023-06-10T01:55:15;13.90;99.90
48019;DHT22;33786;48.690;9.562;2023-06-10T01:57:42;13.80;99.90
48019;DHT22;33786;48.690;9.562;2023-06-10T02:00:08;13.80;99.90
48019;DHT22;33786;48.690;9.562;2023-06-10T02:02:36;13.90;99.90
48019;DHT22;33786;48.690;9.562;2023-06-10T02:05:03;13.90;99.90
48019;DHT22;33786;48.690;9.562;2023-06-10T02:07:30;13.90;99.90
48019;DHT22;33786;48.690;9.562;2023-06-10T02:09:56;14.00;99.90
48019;DHT22;33786;48.690;9.562;2023-06-10T02:12:23;14.00;99.90
48019;DHT22;33786;48.690;9.562;2023-06-10T02:14:50;14.00;99.90
48019;DHT22;33786;48.690;9.562;2023-06-10T02:17:17;14.00;99.90
48019;DHT22;33786;48.690;9.562;2023-06-10T02:19:44;14.10;99.90
48019;DHT22;33786;48.690;9.562;2023-06-10T02:22:10;14.10;99.90
48019;DHT22;33786;48.690;9.562;2023-06-10T02:24:37;14.00;99.90
48019;DHT22;33786;48.690;9.562;2023-06-10T02:27:04;14.10;99.90
48019;DHT22;33786;48.690;9.562;2023-06-10T02:29:33;14.10;99.90
48019;DHT22;33786;48.690;9.562;2023-06-10T02:32:01;14.10;99.90
48019;DHT22;33786;48.690;9.562;2023-06-10T02:34:28;14.00;99.90
48019;DHT22;33786;48.690;9.562;2023-06-10T02:36:55;14.00;99.90
48019;DHT22;33786;48.690;9.562;2023-06-10T02:39:22;13.80;99.90
48019;DHT22;33786;48.690;9.562;2023-06-10T02:41:48;13.70;99.90
48019;DHT22;33786;48.690;9.562;2023-06-10T02:44:16;13.60;99.90
48019;DHT22;33786;48.690;9.562;2023-06-10T02:46:43;13.50;99.90
48019;DHT22;33786;48.690;9.562;2023-06-10T02:49:11;13.40;99.90
48019;DHT22;33786;48.690;9.562;2023-06-10T02:51:38;13.30;99.90
48019;DHT22;33786;48.690;9.562;2023-06-10T02:54:05;13.20;99.90
48019;DHT22;33786;48.690;9.562;2023-06-10T02:56:31;13.10;99.90
48019;DHT22;33786;48.690;9.562;2023-06-10T02:58:59;13.00;99.90
48019;DHT22;33786;48.690;9.562;2023-06-10T03:01:26;13.00;99.90
48019;DHT22;33786;48.690;9.562;2023-06-10T03:03:53;13.00;99.90
48019;DHT22;33786;48.690;9.562;2023-06-10T03:06:22;12.90;99.90
48019;DHT22;33786;48.690;9.562;2023-06-10T03:08:51;12.90;99.90
48019;DHT22;33786;48.690;9.562;2023-06-10T03:11:17;12.80;99.90
48019;DHT22;33786;48.690;9.562;2023-06-10T03:13:46;12.90;99.90
48019;DHT22;33786;48.690;9.562;2023-06-10T03:16:12;12.80;99.90
48019;DHT22;33786;48.690;9.562;2023-06-10T03:18:39;12.80;99.90
48019;DHT22;33786;48.690;9.562;2023-06-10T03:21:06;12.80;99.90
48019;DHT22;33786;48.690;9.562;2023-06-10T03:23:33;12.70;99.90
48019;DHT22;33786;48.690;9.562;2023-06-10T03:26:00;12.70;99.90
48019;DHT22;33786;48.690;9.562;2023-06-10T03:28:27;12.60;99.90
48019;DHT22;33786;48.690;9.562;2023-06-10T03:30:53;12.60;99.90
48019;DHT22;33786;48.690;9.562;2023-06-10T03:33:21;12.60;99.90
48019;DHT22;33786;48.690;9.562;2023-06-10T03:35:48;12.50;99.90
48019;DHT22;33786;48.690;9.562;2023-06-10T03:38:15;12.60;99.90
48019;DHT22;33786;48.690;9.562;2023-06-10T03:40:42;12.60;99.90
48019;DHT22;33786;48.690;9.562;2023-06-10T03:43:09;12.70;99.90
48019;DHT22;33786;48.690;9.562;2023-06-10T03:45:36;12.70;99.90
48019;DHT22;33786;48.690;9.562;2023-06-10T03:48:03;12.90;99.90
48019;DHT22;33786;48.690;9.562;2023-06-10T03:50:30;13.60;99.90
48019;DHT22;33786;48.690;9.562;2023-06-10T03:52:57;14.80;99.90
48019;DHT22;33786;48.690;9.562;2023-06-10T03:55:24;15.90;99.90
48019;DHT22;33786;48.690;9.562;2023-06-10T03:57:50;17.00;99.90
48019;DHT22;33786;48.690;9.562;2023-06-10T04:00:17;17.90;99.90
48019;DHT22;33786;48.690;9.562;2023-06-10T04:02:47;18.70;98.80
48019;DHT22;33786;48.690;9.562;2023-06-10T04:05:19;19.50;97.40
48019;DHT22;33786;48.690;9.562;2023-06-10T04:07:49;20.10;96.10
48019;DHT22;33786;48.690;9.562;2023-06-10T04:10:16;20.80;94.80
48019;DHT22;33786;48.690;9.562;2023-06-10T04:12:43;21.40;93.40
48019;DHT22;33786;48.690;9.562;2023-06-10T04:15:10;21.70;92.20
48019;DHT22;33786;48.690;9.562;2023-06-10T04:17:37;22.40;91.60
48019;DHT22;33786;48.690;9.562;2023-06-10T04:20:04;22.80;90.30
48019;DHT22;33786;48.690;9.562;2023-06-10T04:22:33;23.30;88.70
48019;DHT22;33786;48.690;9.562;2023-06-10T04:25:00;24.00;86.70
48019;DHT22;33786;48.690;9.562;2023-06-10T04:27:27;24.40;84.60
48019;DHT22;33786;48.690;9.562;2023-06-10T04:29:54;25.20;82.60
48019;DHT22;33786;48.690;9.562;2023-06-10T04:32:20;25.70;80.10
48019;DHT22;33786;48.690;9.562;2023-06-10T04:34:48;26.40;79.00
48019;DHT22;33786;48.690;9.562;2023-06-10T04:37:15;27.00;76.70
48019;DHT22;33786;48.690;9.562;2023-06-10T04:39:42;27.40;75.80
48019;DHT22;33786;48.690;9.562;2023-06-10T04:42:08;27.90;74.20
48019;DHT22;33786;48.690;9.562;2023-06-10T04:44:35;28.30;73.80
48019;DHT22;33786;48.690;9.562;2023-06-10T04:47:02;28.50;72.70
48019;DHT22;33786;48.690;9.562;2023-06-10T04:49:29;29.10;71.70
48019;DHT22;33786;48.690;9.562;2023-06-10T04:51:56;29.50;70.80
48019;DHT22;33786;48.690;9.562;2023-06-10T04:54:23;29.80;68.60
48019;DHT22;33786;48.690;9.562;2023-06-10T04:56:49;30.20;68.90
48019;DHT22;33786;48.690;9.562;2023-06-10T04:59:16;30.80;68.10
48019;DHT22;33786;48.690;9.562;2023-06-10T05:01:43;31.40;66.10
48019;DHT22;33786;48.690;9.562;2023-06-10T05:04:10;31.80;65.30
48019;DHT22;33786;48.690;9.562;2023-06-10T05:06:36;32.20;65.00
48019;DHT22;33786;48.690;9.562;2023-06-10T05:09:03;32.70;64.70
48019;DHT22;33786;48.690;9.562;2023-06-10T05:11:30;32.90;61.90
48019;DHT22;33786;48.690;9.562;2023-06-10T05:13:57;33.20;61.50
48019;DHT22;33786;48.690;9.562;2023-06-10T05:16:23;33.10;61.70
48019;DHT22;33786;48.690;9.562;2023-06-10T05:18:50;33.30;60.70
48019;DHT22;33786;48.690;9.562;2023-06-10T05:21:18;33.50;60.30
48019;DHT22;33786;48.690;9.562;2023-06-10T05:23:45;33.50;59.80
48019;DHT22;33786;48.690;9.562;2023-06-10T05:26:12;34.20;59.70
48019;DHT22;33786;48.690;9.562;2023-06-10T05:28:39;34.30;59.40
48019;DHT22;33786;48.690;9.562;2023-06-10T05:31:06;35.10;57.60
48019;DHT22;33786;48.690;9.562;2023-06-10T05:33:32;34.00;58.50
48019;DHT22;33786;48.690;9.562;2023-06-10T05:35:59;34.00;58.70
48019;DHT22;33786;48.690;9.562;2023-06-10T05:38:26;33.70;58.80
48019;DHT22;33786;48.690;9.562;2023-06-10T05:40:53;33.30;59.90
48019;DHT22;33786;48.690;9.562;2023-06-10T05:43:19;33.70;58.80
48019;DHT22;33786;48.690;9.562;2023-06-10T05:45:46;34.00;59.20
48019;DHT22;33786;48.690;9.562;2023-06-10T05:48:13;34.50;58.30
48019;DHT22;33786;48.690;9.562;2023-06-10T05:50:40;34.70;57.60
48019;DHT22;33786;48.690;9.562;2023-06-10T05:53:09;35.50;57.90
48019;DHT22;33786;48.690;9.562;2023-06-10T05:55:44;35.20;57.30
48019;DHT22;33786;48.690;9.562;2023-06-10T05:58:12;36.10;56.60
48019;DHT22;33786;48.690;9.562;2023-06-10T06:00:39;36.90;55.50
48019;DHT22;33786;48.690;9.562;2023-06-10T06:03:07;36.30;56.40
48019;DHT22;33786;48.690;9.562;2023-06-10T06:05:35;37.00;55.10
48019;DHT22;33786;48.690;9.562;2023-06-10T06:08:04;37.00;55.50
48019;DHT22;33786;48.690;9.562;2023-06-10T06:10:31;37.20;55.20
48019;DHT22;33786;48.690;9.562;2023-06-10T06:12:58;37.30;54.20
48019;DHT22;33786;48.690;9.562;2023-06-10T06:15:25;37.50;54.30
48019;DHT22;33786;48.690;9.562;2023-06-10T06:17:52;37.40;54.20
48019;DHT22;33786;48.690;9.562;2023-06-10T06:20:19;37.10;53.70
48019;DHT22;33786;48.690;9.562;2023-06-10T06:22:46;36.90;54.30
48019;DHT22;33786;48.690;9.562;2023-06-10T06:25:13;36.90;54.70
48019;DHT22;33786;48.690;9.562;2023-06-10T06:27:40;37.10;54.50
48019;DHT22;33786;48.690;9.562;2023-06-10T06:30:07;37.20;54.20
48019;DHT22;33786;48.690;9.562;2023-06-10T06:32:34;36.50;55.10
48019;DHT22;33786;48.690;9.562;2023-06-10T06:35:01;36.50;54.30
48019;DHT22;33786;48.690;9.562;2023-06-10T06:37:28;36.30;54.80
48019;DHT22;33786;48.690;9.562;2023-06-10T06:39:54;36.50;53.90
48019;DHT22;33786;48.690;9.562;2023-06-10T06:42:21;35.80;55.70
48019;DHT22;33786;48.690;9.562;2023-06-10T06:44:48;36.30;55.00
48019;DHT22;33786;48.690;9.562;2023-06-10T06:47:15;36.40;55.00
48019;DHT22;33786;48.690;9.562;2023-06-10T06:49:44;35.30;55.70
48019;DHT22;33786;48.690;9.562;2023-06-10T06:52:11;34.90;56.50
48019;DHT22;33786;48.690;9.562;2023-06-10T06:54:37;35.30;56.50
48019;DHT22;33786;48.690;9.562;2023-06-10T06:57:04;35.10;56.50
48019;DHT22;33786;48.690;9.562;2023-06-10T06:59:32;35.90;55.30
48019;DHT22;33786;48.690;9.562;2023-06-10T07:01:59;37.30;55.00
48019;DHT22;33786;48.690;9.562;2023-06-10T07:04:26;36.90;54.50
48019;DHT22;33786;48.690;9.562;2023-06-10T07:06:53;37.20;54.50
48019;DHT22;33786;48.690;9.562;2023-06-10T07:09:19;36.00;55.10
48019;DHT22;33786;48.690;9.562;2023-06-10T07:11:46;36.00;55.90
48019;DHT22;33786;48.690;9.562;2023-06-10T07:14:13;35.30;56.60
48019;DHT22;33786;48.690;9.562;2023-06-10T07:16:40;35.90;56.20
48019;DHT22;33786;48.690;9.562;2023-06-10T07:19:06;35.60;55.60
48019;DHT22;33786;48.690;9.562;2023-06-10T07:21:33;36.30;55.50
48019;DHT22;33786;48.690;9.562;2023-06-10T07:24:00;35.10;54.90
48019;DHT22;33786;48.690;9.562;2023-06-10T07:26:27;34.00;57.40
48019;DHT22;33786;48.690;9.562;2023-06-10T07:28:54;33.70;58.30
48019;DHT22;33786;48.690;9.562;2023-06-10T07:31:21;33.40;58.00
48019;DHT22;33786;48.690;9.562;2023-06-10T07:33:47;32.40;58.80
48019;DHT22;33786;48.690;9.562;2023-06-10T07:36:14;32.20;59.50
48019;DHT22;33786;48.690;9.562;2023-06-10T07:38:41;32.60;59.10
48019;DHT22;33786;48.690;9.562;2023-06-10T07:41:09;32.40;59.20
48019;DHT22;33786;48.690;9.562;2023-06-10T07:43:36;32.30;59.60
48019;DHT22;33786;48.690;9.562;2023-06-10T07:46:03;32.70;60.00
48019;DHT22;33786;48.690;9.562;2023-06-10T07:48:30;32.10;60.00
48019;DHT22;33786;48.690;9.562;2023-06-10T07:50:56;31.60;60.80
48019;DHT22;33786;48.690;9.562;2023-06-10T07:53:23;31.40;60.50
48019;DHT22;33786;48.690;9.562;2023-06-10T07:55:50;30.70;61.60
48019;DHT22;33786;48.690;9.562;2023-06-10T07:58:16;31.80;61.00
48019;DHT22;33786;48.690;9.562;2023-06-10T08:00:43;31.60;62.00
48019;DHT22;33786;48.690;9.562;2023-06-10T08:03:10;32.10;60.70
48019;DHT22;33786;48.690;9.562;2023-06-10T08:05:37;32.40;59.20
48019;DHT22;33786;48.690;9.562;2023-06-10T08:08:03;32.50;59.30
48019;DHT22;33786;48.690;9.562;2023-06-10T08:10:30;31.90;61.20
48019;DHT22;33786;48.690;9.562;2023-06-10T08:12:57;31.30;62.00
48019;DHT22;33786;48.690;9.562;2023-06-10T08:15:24;31.10;62.60
48019;DHT22;33786;48.690;9.562;2023-06-10T08:17:50;30.30;63.60
48019;DHT22;33786;48.690;9.562;2023-06-10T08:20:18;30.30;63.60
48019;DHT22;33786;48.690;9.562;2023-06-10T08:22:45;29.70;64.40
48019;DHT22;33786;48.690;9.562;2023-06-10T08:25:12;29.80;64.10
48019;DHT22;33786;48.690;9.562;2023-06-10T08:27:38;29.50;64.60
48019;DHT22;33786;48.690;9.562;2023-06-10T08:30:05;30.20;65.70
48019;DHT22;33786;48.690;9.562;2023-06-10T08:32:32;30.00;64.70
48019;DHT22;33786;48.690;9.562;2023-06-10T08:34:59;30.40;63.90
48019;DHT22;33786;48.690;9.562;2023-06-10T08:37:26;29.90;65.20
48019;DHT22;33786;48.690;9.562;2023-06-10T08:39:53;29.30;66.00
48019;DHT22;33786;48.690;9.562;2023-06-10T08:42:23;29.20;65.30
48019;DHT22;33786;48.690;9.562;2023-06-10T08:44:54;29.30;66.90
48019;DHT22;33786;48.690;9.562;2023-06-10T08:47:23;29.20;66.10
48019;DHT22;33786;48.690;9.562;2023-06-10T08:49:50;29.10;65.50
48019;DHT22;33786;48.690;9.562;2023-06-10T08:52:17;29.20;66.30
48019;DHT22;33786;48.690;9.562;2023-06-10T08:54:49;29.60;67.30
48019;DHT22;33786;48.690;9.562;2023-06-10T08:57:17;29.20;66.00
48019;DHT22;33786;48.690;9.562;2023-06-10T08:59:44;29.10;65.00
48019;DHT22;33786;48.690;9.562;2023-06-10T09:02:11;28.50;65.60
48019;DHT22;33786;48.690;9.562;2023-06-10T09:04:38;28.30;66.00
48019;DHT22;33786;48.690;9.562;2023-06-10T09:07:05;28.10;66.40
48019;DHT22;33786;48.690;9.562;2023-06-10T09:09:32;28.00;67.60
48019;DHT22;33786;48.690;9.562;2023-06-10T09:12:01;28.00;66.10
48019;DHT22;33786;48.690;9.562;2023-06-10T09:14:28;27.60;66.50
48019;DHT22;33786;48.690;9.562;2023-06-10T09:16:54;27.50;68.10
48019;DHT22;33786;48.690;9.562;2023-06-10T09:19:27;27.90;67.10
48019;DHT22;33786;48.690;9.562;2023-06-10T09:21:54;27.90;66.10
48019;DHT22;33786;48.690;9.562;2023-06-10T09:24:24;28.30;67.30
48019;DHT22;33786;48.690;9.562;2023-06-10T09:27:01;28.60;66.20
48019;DHT22;33786;48.690;9.562;2023-06-10T09:29:28;29.10;65.10
48019;DHT22;33786;48.690;9.562;2023-06-10T09:31:55;29.40;64.10
48019;DHT22;33786;48.690;9.562;2023-06-10T09:34:24;29.10;64.40
48019;DHT22;33786;48.690;9.562;2023-06-10T09:36:51;29.10;64.90
48019;DHT22;33786;48.690;9.562;2023-06-10T09:39:18;29.00;64.40
48019;DHT22;33786;48.690;9.562;2023-06-10T09:41:45;28.90;64.40
48019;DHT22;33786;48.690;9.562;2023-06-10T09:44:18;29.10;64.50
48019;DHT22;33786;48.690;9.562;2023-06-10T09:46:46;29.10;64.70
48019;DHT22;33786;48.690;9.562;2023-06-10T09:49:13;29.20;64.40
48019;DHT22;33786;48.690;9.562;2023-06-10T09:51:50;29.90;64.50
48019;DHT22;33786;48.690;9.562;2023-06-10T09:54:17;29.40;64.00
48019;DHT22;33786;48.690;9.562;2023-06-10T09:56:48;30.30;65.20
48019;DHT22;33786;48.690;9.562;2023-06-10T09:59:15;29.80;63.10
48019;DHT22;33786;48.690;9.562;2023-06-10T10:01:42;29.10;64.40
48019;DHT22;33786;48.690;9.562;2023-06-10T10:04:09;28.90;64.30
48019;DHT22;33786;48.690;9.562;2023-06-10T10:06:36;28.60;64.50
48019;DHT22;33786;48.690;9.562;2023-06-10T10:09:04;28.90;64.20
48019;DHT22;33786;48.690;9.562;2023-06-10T10:11:30;29.30;64.60
48019;DHT22;33786;48.690;9.562;2023-06-10T10:13:58;29.50;63.60
48019;DHT22;33786;48.690;9.562;2023-06-10T10:16:37;29.80;62.90
48019;DHT22;33786;48.690;9.562;2023-06-10T10:19:08;30.10;63.00
48019;DHT22;33786;48.690;9.562;2023-06-10T10:21:40;30.00;62.90
48019;DHT22;33786;48.690;9.562;2023-06-10T10:24:42;29.70;64.60
48019;DHT22;33786;48.690;9.562;2023-06-10T10:27:02;30.20;64.50
48019;DHT22;33786;48.690;9.562;2023-06-10T10:29:35;30.50;63.60
48019;DHT22;33786;48.690;9.562;2023-06-10T10:32:05;30.20;62.30
48019;DHT22;33786;48.690;9.562;2023-06-10T10:37:06;29.60;63.30
48019;DHT22;33786;48.690;9.562;2023-06-10T10:39:33;29.00;64.50
48019;DHT22;33786;48.690;9.562;2023-06-10T10:42:00;29.00;65.20
48019;DHT22;33786;48.690;9.562;2023-06-10T10:44:27;29.00;64.80
48019;DHT22;33786;48.690;9.562;2023-06-10T10:46:54;28.50;64.80
48019;DHT22;33786;48.690;9.562;2023-06-10T10:49:22;28.30;65.00
48019;DHT22;33786;48.690;9.562;2023-06-10T10:51:56;28.20;65.70
48019;DHT22;33786;48.690;9.562;2023-06-10T10:54:28;28.30;64.40
48019;DHT22;33786;48.690;9.562;2023-06-10T10:57:10;28.20;64.30
48019;DHT22;33786;48.690;9.562;2023-06-10T10:59:44;27.70;64.80
48019;DHT22;33786;48.690;9.562;2023-06-10T11:02:15;27.50;66.10
48019;DHT22;33786;48.690;9.562;2023-06-10T11:04:46;27.30;66.10
48019;DHT22;33786;48.690;9.562;2023-06-10T11:07:14;27.20;65.80
48019;DHT22;33786;48.690;9.562;2023-06-10T11:12:33;28.20;65.10
48019;DHT22;33786;48.690;9.562;2023-06-10T11:15:05;28.50;64.20
48019;DHT22;33786;48.690;9.562;2023-06-10T11:17:32;28.60;63.20
48019;DHT22;33786;48.690;9.562;2023-06-10T11:19:59;29.10;63.30
48019;DHT22;33786;48.690;9.562;2023-06-10T11:22:26;29.60;61.90
48019;DHT22;33786;48.690;9.562;2023-06-10T11:24:53;29.40;61.80
48019;DHT22;33786;48.690;9.562;2023-06-10T11:32:33;29.70;61.30
48019;DHT22;33786;48.690;9.562;2023-06-10T11:35:03;29.90;61.00
48019;DHT22;33786;48.690;9.562;2023-06-10T11:37:30;29.80;60.20
48019;DHT22;33786;48.690;9.562;2023-06-10T11:39:57;29.40;60.80
48019;DHT22;33786;48.690;9.562;2023-06-10T11:42:25;29.20;61.30
48019;DHT22;33786;48.690;9.562;2023-06-10T11:44:52;29.40;60.80
48019;DHT22;33786;48.690;9.562;2023-06-10T11:47:19;29.10;61.90
48019;DHT22;33786;48.690;9.562;2023-06-10T11:49:51;28.50;62.30
48019;DHT22;33786;48.690;9.562;2023-06-10T11:52:28;28.70;62.80
48019;DHT22;33786;48.690;9.562;2023-06-10T11:54:56;28.60;63.30
48019;DHT22;33786;48.690;9.562;2023-06-10T11:57:23;28.70;62.60
48019;DHT22;33786;48.690;9.562;2023-06-10T11:59:49;28.80;63.20
48019;DHT22;33786;48.690;9.562;2023-06-10T12:02:16;29.10;61.70
48019;DHT22;33786;48.690;9.562;2023-06-10T12:04:43;29.00;62.00
48019;DHT22;33786;48.690;9.562;2023-06-10T12:07:16;29.30;63.00
48019;DHT22;33786;48.690;9.562;2023-06-10T12:09:43;29.60;61.70
48019;DHT22;33786;48.690;9.562;2023-06-10T12:12:10;30.00;60.80
48019;DHT22;33786;48.690;9.562;2023-06-10T12:14:51;30.30;61.20
48019;DHT22;33786;48.690;9.562;2023-06-10T12:19:59;28.90;61.90
48019;DHT22;33786;48.690;9.562;2023-06-10T12:22:26;28.50;63.60
48019;DHT22;33786;48.690;9.562;2023-06-10T12:25:03;28.80;63.30
48019;DHT22;33786;48.690;9.562;2023-06-10T12:27:31;28.80;62.30
48019;DHT22;33786;48.690;9.562;2023-06-10T12:29:58;28.40;62.60
48019;DHT22;33786;48.690;9.562;2023-06-10T12:35:03;28.00;63.10
48019;DHT22;33786;48.690;9.562;2023-06-10T12:37:33;28.20;62.80
48019;DHT22;33786;48.690;9.562;2023-06-10T12:40:03;28.40;62.80
48019;DHT22;33786;48.690;9.562;2023-06-10T12:42:32;28.50;62.70
48019;DHT22;33786;48.690;9.562;2023-06-10T12:45:03;28.50;62.80
48019;DHT22;33786;48.690;9.562;2023-06-10T12:47:31;28.80;62.60
48019;DHT22;33786;48.690;9.562;2023-06-10T12:50:02;29.00;61.60
48019;DHT22;33786;48.690;9.562;2023-06-10T12:52:29;28.90;61.70
48019;DHT22;33786;48.690;9.562;2023-06-10T12:54:56;29.50;61.50
48019;DHT22;33786;48.690;9.562;2023-06-10T12:57:23;30.00;61.20
48019;DHT22;33786;48.690;9.562;2023-06-10T12:59:50;30.50;59.50
48019;DHT22;33786;48.690;9.562;2023-06-10T13:02:19;30.60;58.10
48019;DHT22;33786;48.690;9.562;2023-06-10T13:04:46;30.00;59.80
48019;DHT22;33786;48.690;9.562;2023-06-10T13:07:14;29.90;60.80
48019;DHT22;33786;48.690;9.562;2023-06-10T13:09:41;30.10;60.90
48019;DHT22;33786;48.690;9.562;2023-06-10T13:12:08;30.10;60.10
48019;DHT22;33786;48.690;9.562;2023-06-10T13:14:41;29.80;60.90
48019;DHT22;33786;48.690;9.562;2023-06-10T13:17:08;29.10;60.90
48019;DHT22;33786;48.690;9.562;2023-06-10T13:19:35;28.70;61.50
48019;DHT22;33786;48.690;9.562;2023-06-10T13:22:02;28.50;61.70
48019;DHT22;33786;48.690;9.562;2023-06-10T13:24:28;28.50;61.90
48019;DHT22;33786;48.690;9.562;2023-06-10T13:26:55;28.40;62.00
48019;DHT22;33786;48.690;9.562;2023-06-10T13:29:22;28.40;62.00
48019;DHT22;33786;48.690;9.562;2023-06-10T13:31:49;28.60;60.20
48019;DHT22;33786;48.690;9.562;2023-06-10T13:34:16;29.10;60.90
48019;DHT22;33786;48.690;9.562;2023-06-10T13:36:43;29.60;61.00
48019;DHT22;33786;48.690;9.562;2023-06-10T13:39:10;29.80;60.00
48019;DHT22;33786;48.690;9.562;2023-06-10T13:41:36;29.80;60.00
48019;DHT22;33786;48.690;9.562;2023-06-10T13:44:03;30.10;60.60
48019;DHT22;33786;48.690;9.562;2023-06-10T13:46:30;29.90;60.70
48019;DHT22;33786;48.690;9.562;2023-06-10T13:48:57;29.30;61.90
48019;DHT22;33786;48.690;9.562;2023-06-10T13:51:23;28.70;63.00
48019;DHT22;33786;48.690;9.562;2023-06-10T13:53:50;28.20;64.40
48019;DHT22;33786;48.690;9.562;2023-06-10T13:56:18;28.00;64.80
48019;DHT22;33786;48.690;9.562;2023-06-10T13:58:45;28.00;64.20
48019;DHT22;33786;48.690;9.562;2023-06-10T14:01:12;28.10;64.00
48019;DHT22;33786;48.690;9.562;2023-06-10T14:03:38;28.30;63.60
48019;DHT22;33786;48.690;9.562;2023-06-10T14:06:06;28.50;64.20
48019;DHT22;33786;48.690;9.562;2023-06-10T14:08:32;28.50;63.10
48019;DHT22;33786;48.690;9.562;2023-06-10T14:10:59;28.50;62.60
48019;DHT22;33786;48.690;9.562;2023-06-10T14:13:26;28.70;62.70
48019;DHT22;33786;48.690;9.562;2023-06-10T14:15:53;28.90;63.20
48019;DHT22;33786;48.690;9.562;2023-06-10T14:18:20;29.10;63.40
48019;DHT22;33786;48.690;9.562;2023-06-10T14:20:46;29.00;63.00
48019;DHT22;33786;48.690;9.562;2023-06-10T14:23:13;28.50;63.00
48019;DHT22;33786;48.690;9.562;2023-06-10T14:25:40;28.20;63.10
48019;DHT22;33786;48.690;9.562;2023-06-10T14:28:07;27.80;62.90
48019;DHT22;33786;48.690;9.562;2023-06-10T14:30:33;27.70;63.90
48019;DHT22;33786;48.690;9.562;2023-06-10T14:33:00;27.60;63.70
48019;DHT22;33786;48.690;9.562;2023-06-10T14:35:27;27.80;64.00
48019;DHT22;33786;48.690;9.562;2023-06-10T14:37:53;27.90;63.20
48019;DHT22;33786;48.690;9.562;2023-06-10T14:40:20;28.20;63.60
48019;DHT22;33786;48.690;9.562;2023-06-10T14:42:49;28.20;64.50
48019;DHT22;33786;48.690;9.562;2023-06-10T14:45:16;28.40;64.20
48019;DHT22;33786;48.690;9.562;2023-06-10T14:47:43;28.40;64.00
48019;DHT22;33786;48.690;9.562;2023-06-10T14:50:09;28.20;64.40
48019;DHT22;33786;48.690;9.562;2023-06-10T14:52:36;28.10;64.60
48019;DHT22;33786;48.690;9.562;2023-06-10T14:55:03;27.80;64.30
48019;DHT22;33786;48.690;9.562;2023-06-10T14:57:30;27.60;64.90
48019;DHT22;33786;48.690;9.562;2023-06-10T15:00:02;27.30;65.50
48019;DHT22;33786;48.690;9.562;2023-06-10T15:02:29;27.20;65.20
48019;DHT22;33786;48.690;9.562;2023-06-10T15:04:55;27.40;65.00
48019;DHT22;33786;48.690;9.562;2023-06-10T15:07:22;27.50;65.60
48019;DHT22;33786;48.690;9.562;2023-06-10T15:09:49;27.60;65.30
48019;DHT22;33786;48.690;9.562;2023-06-10T15:12:15;27.90;64.10
48019;DHT22;33786;48.690;9.562;2023-06-10T15:14:42;28.00;63.00
48019;DHT22;33786;48.690;9.562;2023-06-10T15:17:09;28.00;62.90
48019;DHT22;33786;48.690;9.562;2023-06-10T15:19:36;28.10;62.40
48019;DHT22;33786;48.690;9.562;2023-06-10T15:22:02;28.10;63.20
48019;DHT22;33786;48.690;9.562;2023-06-10T15:24:29;28.00;63.30
48019;DHT22;33786;48.690;9.562;2023-06-10T15:26:56;27.80;62.90
48019;DHT22;33786;48.690;9.562;2023-06-10T15:29:23;27.70;62.50
48019;DHT22;33786;48.690;9.562;2023-06-10T15:31:49;27.80;62.30
48019;DHT22;33786;48.690;9.562;2023-06-10T15:34:16;27.80;62.20
48019;DHT22;33786;48.690;9.562;2023-06-10T15:36:43;27.90;62.20
48019;DHT22;33786;48.690;9.562;2023-06-10T15:39:10;27.90;62.60
48019;DHT22;33786;48.690;9.562;2023-06-10T15:41:36;28.00;62.50
48019;DHT22;33786;48.690;9.562;2023-06-10T15:44:03;27.90;62.50
48019;DHT22;33786;48.690;9.562;2023-06-10T15:46:30;27.80;62.40
48019;DHT22;33786;48.690;9.562;2023-06-10T15:48:57;27.90;62.60
48019;DHT22;33786;48.690;9.562;2023-06-10T15:51:24;27.90;62.10
48019;DHT22;33786;48.690;9.562;2023-06-10T15:53:51;27.80;62.80